sensor_id;sensor_type;location;lat;lon;timestamp;temperature;humidity
11426;DHT22;5769;47.998;7.788;2023-02-15T00:00:47;19.00;58.60
11426;DHT22;5769;47.998;7.788;2023-02-15T00:03:16;19.00;58.60
11426;DHT22;5769;47.998;7.788;2023-02-15T00:05:44;19.00;58.60
11426;DHT22;5769;47.998;7.788;2023-02-15T00:08:10;19.00;58.60
11426;DHT22;5769;47.998;7.788;2023-02-15T00:10:37;19.00;58.60
11426;DHT22;5769;47.998;7.788;2023-02-15T00:13:04;19.00;58.60
11426;DHT22;5769;47.998;7.788;2023-02-15T00:15:30;19.00;58.60
11426;DHT22;5769;47.998;7.788;2023-02-15T00:17:57;19.00;58.60
11426;DHT22;5769;47.998;7.788;2023-02-15T00:20:23;19.00;58.60
11426;DHT22;5769;47.998;7.788;2023-02-15T00:22:51;19.00;58.60
11426;DHT22;5769;47.998;7.788;2023-02-15T00:25:18;19.00;58.60
11426;DHT22;5769;47.998;7.788;2023-02-15T00:27:45;19.00;58.60
11426;DHT22;5769;47.998;7.788;2023-02-15T00:30:12;19.00;58.60
11426;DHT22;5769;47.998;7.788;2023-02-15T00:32:39;19.00;58.60
11426;DHT22;5769;47.998;7.788;2023-02-15T00:35:06;19.00;58.60
11426;DHT22;5769;47.998;7.788;2023-02-15T00:37:34;19.00;58.60
11426;DHT22;5769;47.998;7.788;2023-02-15T00:40:02;19.00;58.60
11426;DHT22;5769;47.998;7.788;2023-02-15T00:42:31;19.00;58.60
11426;DHT22;5769;47.998;7.788;2023-02-15T00:44:58;19.00;58.60
11426;DHT22;5769;47.998;7.788;2023-02-15T00:47:25;19.00;58.60
11426;DHT22;5769;47.998;7.788;2023-02-15T00:49:52;19.00;58.60
11426;DHT22;5769;47.998;7.788;2023-02-15T00:52:18;19.00;58.60
11426;DHT22;5769;47.998;7.788;2023-02-15T00:54:45;19.00;58.60
11426;DHT22;5769;47.998;7.788;2023-02-15T00:57:13;19.00;59.20
11426;DHT22;5769;47.998;7.788;2023-02-15T00:59:39;19.00;58.60
11426;DHT22;5769;47.998;7.788;2023-02-15T01:02:06;19.00;58.60
11426;DHT22;5769;47.998;7.788;2023-02-15T01:04:33;19.00;58.60
11426;DHT22;5769;47.998;7.788;2023-02-15T01:07:00;19.00;58.60
11426;DHT22;5769;47.998;7.788;2023-02-15T01:09:27;19.00;58.60
11426;DHT22;5769;47.998;7.788;2023-02-15T01:11:54;19.00;58.60
11426;DHT22;5769;47.998;7.788;2023-02-15T01:14:22;19.00;58.60
11426;DHT22;5769;47.998;7.788;2023-02-15T01:16:48;19.00;58.60
11426;DHT22;5769;47.998;7.788;2023-02-15T01:19:15;19.00;58.60
11426;DHT22;5769;47.998;7.788;2023-02-15T01:21:42;19.00;58.60
11426;DHT22;5769;47.998;7.788;2023-02-15T01:24:12;19.00;58.60
11426;DHT22;5769;47.998;7.788;2023-02-15T01:26:39;19.00;58.60
11426;DHT22;5769;47.998;7.788;2023-02-15T01:29:06;19.00;58.60
11426;DHT22;5769;47.998;7.788;2023-02-15T01:31:34;19.00;58.60
11426;DHT22;5769;47.998;7.788;2023-02-15T01:34:01;19.00;58.60
11426;DHT22;5769;47.998;7.788;2023-02-15T01:36:28;19.00;58.60
11426;DHT22;5769;47.998;7.788;2023-02-15T01:38:55;19.00;58.60
11426;DHT22;5769;47.998;7.788;2023-02-15T01:41:22;19.00;58.70
11426;DHT22;5769;47.998;7.788;2023-02-15T01:43:51;19.00;58.70
11426;DHT22;5769;47.998;7.788;2023-02-15T01:46:20;19.00;58.60
11426;DHT22;5769;47.998;7.788;2023-02-15T01:48:51;19.00;58.70
11426;DHT22;5769;47.998;7.788;2023-02-15T01:51:21;19.00;58.70
11426;DHT22;5769;47.998;7.788;2023-02-15T01:53:51;19.00;58.70
11426;DHT22;5769;47.998;7.788;2023-02-15T01:56:20;19.00;58.70
11426;DHT22;5769;47.998;7.788;2023-02-15T01:58:49;19.00;58.70
11426;DHT22;5769;47.998;7.788;2023-02-15T02:01:18;19.00;58.70
11426;DHT22;5769;47.998;7.788;2023-02-15T02:03:53;19.00;58.70
11426;DHT22;5769;47.998;7.788;2023-02-15T02:06:23;19.00;58.70
11426;DHT22;5769;47.998;7.788;2023-02-15T02:08:50;19.00;58.70
11426;DHT22;5769;47.998;7.788;2023-02-15T02:11:17;19.00;58.70
11426;DHT22;5769;47.998;7.788;2023-02-15T02:13:45;19.00;58.70
11426;DHT22;5769;47.998;7.788;2023-02-15T02:16:17;19.00;58.70
11426;DHT22;5769;47.998;7.788;2023-02-15T02:18:56;19.00;58.70
11426;DHT22;5769;47.998;7.788;2023-02-15T02:21:49;19.00;59.20
11426;DHT22;5769;47.998;7.788;2023-02-15T02:24:48;19.00;58.70
11426;DHT22;5769;47.998;7.788;2023-02-15T02:27:26;19.00;58.70
11426;DHT22;5769;47.998;7.788;2023-02-15T02:30:30;19.00;58.60
11426;DHT22;5769;47.998;7.788;2023-02-15T02:33:31;19.00;58.60
11426;DHT22;5769;47.998;7.788;2023-02-15T02:36:06;19.00;58.60
11426;DHT22;5769;47.998;7.788;2023-02-15T02:38:42;19.00;58.60
11426;DHT22;5769;47.998;7.788;2023-02-15T02:41:19;19.00;58.60
11426;DHT22;5769;47.998;7.788;2023-02-15T02:43:51;19.00;58.60
11426;DHT22;5769;47.998;7.788;2023-02-15T02:46:24;19.00;58.60
11426;DHT22;5769;47.998;7.788;2023-02-15T02:48:54;19.00;58.60
11426;DHT22;5769;47.998;7.788;2023-02-15T02:51:21;19.00;58.60
11426;DHT22;5769;47.998;7.788;2023-02-15T02:53:50;19.00;58.60
11426;DHT22;5769;47.998;7.788;2023-02-15T02:56:21;19.00;58.60
11426;DHT22;5769;47.998;7.788;2023-02-15T02:58:54;19.00;58.60
11426;DHT22;5769;47.998;7.788;2023-02-15T03:01:26;19.00;58.60
11426;DHT22;5769;47.998;7.788;2023-02-15T03:03:58;19.00;58.60
11426;DHT22;5769;47.998;7.788;2023-02-15T03:06:32;19.00;58.60
11426;DHT22;5769;47.998;7.788;2023-02-15T03:09:06;19.00;58.60
11426;DHT22;5769;47.998;7.788;2023-02-15T03:11:41;19.00;58.60
11426;DHT22;5769;47.998;7.788;2023-02-15T03:14:09;19.00;58.60
11426;DHT22;5769;47.998;7.788;2023-02-15T03:16:37;19.00;58.60
11426;DHT22;5769;47.998;7.788;2023-02-15T03:19:09;19.00;58.60
11426;DHT22;5769;47.998;7.788;2023-02-15T03:21:41;19.00;58.60
11426;DHT22;5769;47.998;7.788;2023-02-15T03:24:19;19.00;58.60
11426;DHT22;5769;47.998;7.788;2023-02-15T03:26:50;19.00;58.70
11426;DHT22;5769;47.998;7.788;2023-02-15T03:29:20;19.00;58.60
11426;DHT22;5769;47.998;7.788;2023-02-15T03:31:53;19.00;58.60
11426;DHT22;5769;47.998;7.788;2023-02-15T03:34:22;19.00;58.60
11426;DHT22;5769;47.998;7.788;2023-02-15T03:36:56;19.00;58.60
11426;DHT22;5769;47.998;7.788;2023-02-15T03:39:30;19.00;58.60
11426;DHT22;5769;47.998;7.788;2023-02-15T03:42:06;19.00;58.60
11426;DHT22;5769;47.998;7.788;2023-02-15T03:44:42;19.00;58.60
11426;DHT22;5769;47.998;7.788;2023-02-15T03:47:15;19.00;58.60
11426;DHT22;5769;47.998;7.788;2023-02-15T03:49:47;19.00;58.60
11426;DHT22;5769;47.998;7.788;2023-02-15T03:52:16;19.00;58.60
11426;DHT22;5769;47.998;7.788;2023-02-15T03:54:44;19.00;58.60
11426;DHT22;5769;47.998;7.788;2023-02-15T03:57:17;19.00;58.60
11426;DHT22;5769;47.998;7.788;2023-02-15T04:00:05;19.00;58.60
11426;DHT22;5769;47.998;7.788;2023-02-15T04:03:00;19.00;58.60
11426;DHT22;5769;47.998;7.788;2023-02-15T04:05:30;19.00;58.60
11426;DHT22;5769;47.998;7.788;2023-02-15T04:07:57;19.00;58.60
11426;DHT22;5769;47.998;7.788;2023-02-15T04:10:24;19.10;58.60
11426;DHT22;5769;47.998;7.788;2023-02-15T04:13:08;19.00;58.50
11426;DHT22;5769;47.998;7.788;2023-02-15T04:15:34;19.10;58.50
11426;DHT22;5769;47.998;7.788;2023-02-15T04:18:19;19.10;58.50
11426;DHT22;5769;47.998;7.788;2023-02-15T04:20:47;19.10;58.40
11426;DHT22;5769;47.998;7.788;2023-02-15T04:23:32;19.20;58.50
11426;DHT22;5769;47.998;7.788;2023-02-15T04:26:16;19.10;58.40
11426;DHT22;5769;47.998;7.788;2023-02-15T04:28:43;19.20;58.50
11426;DHT22;5769;47.998;7.788;2023-02-15T04:31:09;19.20;58.30
11426;DHT22;5769;47.998;7.788;2023-02-15T04:33:36;19.20;58.30
11426;DHT22;5769;47.998;7.788;2023-02-15T04:36:05;19.20;58.30
11426;DHT22;5769;47.998;7.788;2023-02-15T04:38:32;19.20;58.30
11426;DHT22;5769;47.998;7.788;2023-02-15T04:40:58;19.20;58.30
11426;DHT22;5769;47.998;7.788;2023-02-15T04:43:25;19.30;58.30
11426;DHT22;5769;47.998;7.788;2023-02-15T04:45:51;19.30;58.30
11426;DHT22;5769;47.998;7.788;2023-02-15T04:48:18;19.30;58.30
11426;DHT22;5769;47.998;7.788;2023-02-15T04:50:45;19.30;58.30
11426;DHT22;5769;47.998;7.788;2023-02-15T04:53:13;19.20;58.30
11426;DHT22;5769;47.998;7.788;2023-02-15T04:55:41;19.20;58.30
11426;DHT22;5769;47.998;7.788;2023-02-15T04:58:08;19.20;58.40
11426;DHT22;5769;47.998;7.788;2023-02-15T05:00:35;19.20;58.40
11426;DHT22;5769;47.998;7.788;2023-02-15T05:03:02;19.20;58.30
11426;DHT22;5769;47.998;7.788;2023-02-15T05:05:28;19.20;58.40
11426;DHT22;5769;47.998;7.788;2023-02-15T05:07:55;19.20;58.40
11426;DHT22;5769;47.998;7.788;2023-02-15T05:10:23;19.20;58.40
11426;DHT22;5769;47.998;7.788;2023-02-15T05:12:50;19.20;58.40
11426;DHT22;5769;47.998;7.788;2023-02-15T05:15:16;19.20;58.50
11426;DHT22;5769;47.998;7.788;2023-02-15T05:17:43;19.20;58.50
11426;DHT22;5769;47.998;7.788;2023-02-15T05:20:10;19.20;58.50
11426;DHT22;5769;47.998;7.788;2023-02-15T05:22:37;19.20;58.50
11426;DHT22;5769;47.998;7.788;2023-02-15T05:25:03;19.10;58.40
11426;DHT22;5769;47.998;7.788;2023-02-15T05:27:49;19.10;58.40
11426;DHT22;5769;47.998;7.788;2023-02-15T05:30:33;19.20;58.50
11426;DHT22;5769;47.998;7.788;2023-02-15T05:33:00;19.10;58.40
11426;DHT22;5769;47.998;7.788;2023-02-15T05:35:26;19.10;58.40
11426;DHT22;5769;47.998;7.788;2023-02-15T05:37:53;19.10;58.50
11426;DHT22;5769;47.998;7.788;2023-02-15T05:40:20;19.10;58.50
11426;DHT22;5769;47.998;7.788;2023-02-15T05:42:47;19.10;58.40
11426;DHT22;5769;47.998;7.788;2023-02-15T05:45:15;19.10;58.50
11426;DHT22;5769;47.998;7.788;2023-02-15T05:47:42;19.10;58.50
11426;DHT22;5769;47.998;7.788;2023-02-15T05:50:09;19.10;58.50
11426;DHT22;5769;47.998;7.788;2023-02-15T05:52:36;19.10;58.50
11426;DHT22;5769;47.998;7.788;2023-02-15T05:55:03;19.10;58.50
11426;DHT22;5769;47.998;7.788;2023-02-15T05:57:30;19.10;58.50
11426;DHT22;5769;47.998;7.788;2023-02-15T05:59:57;19.10;58.50
11426;DHT22;5769;47.998;7.788;2023-02-15T06:02:25;19.10;58.50
11426;DHT22;5769;47.998;7.788;2023-02-15T06:04:52;19.10;58.40
11426;DHT22;5769;47.998;7.788;2023-02-15T06:07:18;19.10;58.30
11426;DHT22;5769;47.998;7.788;2023-02-15T06:09:45;19.00;58.10
11426;DHT22;5769;47.998;7.788;2023-02-15T06:12:12;19.00;58.00
11426;DHT22;5769;47.998;7.788;2023-02-15T06:14:38;19.00;57.90
11426;DHT22;5769;47.998;7.788;2023-02-15T06:17:05;19.00;58.50
11426;DHT22;5769;47.998;7.788;2023-02-15T06:19:33;19.00;57.90
11426;DHT22;5769;47.998;7.788;2023-02-15T06:22:00;19.00;57.90
11426;DHT22;5769;47.998;7.788;2023-02-15T06:24:26;19.00;57.90
11426;DHT22;5769;47.998;7.788;2023-02-15T06:26:53;19.00;57.90
11426;DHT22;5769;47.998;7.788;2023-02-15T06:29:20;19.00;57.90
11426;DHT22;5769;47.998;7.788;2023-02-15T06:31:46;18.90;57.80
11426;DHT22;5769;47.998;7.788;2023-02-15T06:34:13;18.90;57.70
11426;DHT22;5769;47.998;7.788;2023-02-15T06:36:41;18.90;57.60
11426;DHT22;5769;47.998;7.788;2023-02-15T06:39:08;18.90;57.70
11426;DHT22;5769;47.998;7.788;2023-02-15T06:41:34;18.90;57.70
11426;DHT22;5769;47.998;7.788;2023-02-15T06:44:01;18.90;57.70
11426;DHT22;5769;47.998;7.788;2023-02-15T06:46:28;18.90;57.70
11426;DHT22;5769;47.998;7.788;2023-02-15T06:48:54;18.90;57.70
11426;DHT22;5769;47.998;7.788;2023-02-15T06:51:21;18.90;57.70
11426;DHT22;5769;47.998;7.788;2023-02-15T06:53:49;18.90;57.70
11426;DHT22;5769;47.998;7.788;2023-02-15T06:56:16;18.90;57.70
11426;DHT22;5769;47.998;7.788;2023-02-15T06:58:43;18.90;57.70
11426;DHT22;5769;47.998;7.788;2023-02-15T07:01:11;18.90;57.70
11426;DHT22;5769;47.998;7.788;2023-02-15T07:03:38;18.90;57.60
11426;DHT22;5769;47.998;7.788;2023-02-15T07:06:05;18.90;57.70
11426;DHT22;5769;47.998;7.788;2023-02-15T07:08:33;18.90;57.60
11426;DHT22;5769;47.998;7.788;2023-02-15T07:11:01;18.90;57.60
11426;DHT22;5769;47.998;7.788;2023-02-15T07:13:42;18.90;57.50
11426;DHT22;5769;47.998;7.788;2023-02-15T07:16:09;18.90;57.60
11426;DHT22;5769;47.998;7.788;2023-02-15T07:18:36;18.90;57.60
11426;DHT22;5769;47.998;7.788;2023-02-15T07:21:03;18.90;57.60
11426;DHT22;5769;47.998;7.788;2023-02-15T07:23:30;18.90;57.70
11426;DHT22;5769;47.998;7.788;2023-02-15T07:25:57;18.90;57.60
11426;DHT22;5769;47.998;7.788;2023-02-15T07:28:25;18.90;57.60
11426;DHT22;5769;47.998;7.788;2023-02-15T07:30:52;18.90;57.50
11426;DHT22;5769;47.998;7.788;2023-02-15T07:33:19;18.90;57.60
11426;DHT22;5769;47.998;7.788;2023-02-15T07:35:54;18.90;57.80
11426;DHT22;5769;47.998;7.788;2023-02-15T07:38:22;18.90;57.70
11426;DHT22;5769;47.998;7.788;2023-02-15T07:40:49;18.90;58.20
11426;DHT22;5769;47.998;7.788;2023-02-15T07:43:15;18.90;57.70
11426;DHT22;5769;47.998;7.788;2023-02-15T07:45:44;18.90;57.70
11426;DHT22;5769;47.998;7.788;2023-02-15T07:48:10;18.90;57.80
11426;DHT22;5769;47.998;7.788;2023-02-15T07:50:37;18.90;58.40
11426;DHT22;5769;47.998;7.788;2023-02-15T07:53:04;18.90;57.50
11426;DHT22;5769;47.998;7.788;2023-02-15T07:55:31;19.00;57.10
11426;DHT22;5769;47.998;7.788;2023-02-15T07:57:57;19.00;57.70
11426;DHT22;5769;47.998;7.788;2023-02-15T08:00:24;19.10;57.60
11426;DHT22;5769;47.998;7.788;2023-02-15T08:02:54;19.10;57.50
11426;DHT22;5769;47.998;7.788;2023-02-15T08:05:35;19.20;58.00
11426;DHT22;5769;47.998;7.788;2023-02-15T08:08:02;19.20;57.30
11426;DHT22;5769;47.998;7.788;2023-02-15T08:10:28;19.30;57.90
11426;DHT22;5769;47.998;7.788;2023-02-15T08:13:09;19.30;57.30
11426;DHT22;5769;47.998;7.788;2023-02-15T08:15:36;19.40;57.20
11426;DHT22;5769;47.998;7.788;2023-02-15T08:18:04;19.40;57.20
11426;DHT22;5769;47.998;7.788;2023-02-15T08:20:30;19.40;57.20
11426;DHT22;5769;47.998;7.788;2023-02-15T08:22:57;19.40;57.10
11426;DHT22;5769;47.998;7.788;2023-02-15T08:25:24;19.40;57.10
11426;DHT22;5769;47.998;7.788;2023-02-15T08:27:51;19.50;57.10
11426;DHT22;5769;47.998;7.788;2023-02-15T08:30:17;19.50;57.00
11426;DHT22;5769;47.998;7.788;2023-02-15T08:32:44;19.50;57.00
11426;DHT22;5769;47.998;7.788;2023-02-15T08:35:12;19.60;56.90
11426;DHT22;5769;47.998;7.788;2023-02-15T08:37:39;19.60;56.90
11426;DHT22;5769;47.998;7.788;2023-02-15T08:40:06;19.60;56.80
11426;DHT22;5769;47.998;7.788;2023-02-15T08:42:34;19.70;56.80
11426;DHT22;5769;47.998;7.788;2023-02-15T08:45:00;19.70;56.70
11426;DHT22;5769;47.998;7.788;2023-02-15T08:47:27;19.70;56.70
11426;DHT22;5769;47.998;7.788;2023-02-15T08:49:54;19.70;56.70
11426;DHT22;5769;47.998;7.788;2023-02-15T08:52:22;19.70;56.60
11426;DHT22;5769;47.998;7.788;2023-02-15T08:54:49;19.70;56.70
11426;DHT22;5769;47.998;7.788;2023-02-15T08:57:15;19.70;56.60
11426;DHT22;5769;47.998;7.788;2023-02-15T08:59:42;19.80;56.60
11426;DHT22;5769;47.998;7.788;2023-02-15T09:02:10;19.80;56.40
11426;DHT22;5769;47.998;7.788;2023-02-15T09:04:37;19.90;56.90
11426;DHT22;5769;47.998;7.788;2023-02-15T09:07:03;19.90;56.20
11426;DHT22;5769;47.998;7.788;2023-02-15T09:09:31;20.00;55.90
11426;DHT22;5769;47.998;7.788;2023-02-15T09:11:58;20.10;55.70
11426;DHT22;5769;47.998;7.788;2023-02-15T09:14:25;20.20;55.60
11426;DHT22;5769;47.998;7.788;2023-02-15T09:16:52;20.30;55.40
11426;DHT22;5769;47.998;7.788;2023-02-15T09:19:20;20.40;55.20
11426;DHT22;5769;47.998;7.788;2023-02-15T09:21:48;20.40;55.30
11426;DHT22;5769;47.998;7.788;2023-02-15T09:24:15;20.50;55.20
11426;DHT22;5769;47.998;7.788;2023-02-15T09:26:45;20.40;55.40
11426;DHT22;5769;47.998;7.788;2023-02-15T09:29:13;20.40;55.50
11426;DHT22;5769;47.998;7.788;2023-02-15T09:31:42;20.40;55.60
11426;DHT22;5769;47.998;7.788;2023-02-15T09:34:09;20.30;55.70
11426;DHT22;5769;47.998;7.788;2023-02-15T09:36:38;20.30;55.60
11426;DHT22;5769;47.998;7.788;2023-02-15T09:39:08;20.30;55.70
11426;DHT22;5769;47.998;7.788;2023-02-15T09:42:07;20.30;55.90
11426;DHT22;5769;47.998;7.788;2023-02-15T09:44:52;20.20;56.00
11426;DHT22;5769;47.998;7.788;2023-02-15T09:47:45;20.20;56.00
11426;DHT22;5769;47.998;7.788;2023-02-15T09:50:20;20.20;56.00
11426;DHT22;5769;47.998;7.788;2023-02-15T09:53:14;20.30;56.20
11426;DHT22;5769;47.998;7.788;2023-02-15T09:55:53;20.40;56.10
11426;DHT22;5769;47.998;7.788;2023-02-15T09:58:30;20.70;55.50
11426;DHT22;5769;47.998;7.788;2023-02-15T10:01:00;21.00;54.90
11426;DHT22;5769;47.998;7.788;2023-02-15T10:03:41;21.30;54.90
11426;DHT22;5769;47.998;7.788;2023-02-15T10:06:23;21.30;54.30
11426;DHT22;5769;47.998;7.788;2023-02-15T10:09:06;21.30;54.50
11426;DHT22;5769;47.998;7.788;2023-02-15T10:11:46;21.30;54.60
11426;DHT22;5769;47.998;7.788;2023-02-15T10:14:30;21.30;54.70
11426;DHT22;5769;47.998;7.788;2023-02-15T10:17:09;21.30;54.70
11426;DHT22;5769;47.998;7.788;2023-02-15T10:19:46;21.50;54.60
11426;DHT22;5769;47.998;7.788;2023-02-15T10:22:24;21.30;54.60
11426;DHT22;5769;47.998;7.788;2023-02-15T10:25:12;21.10;54.70
11426;DHT22;5769;47.998;7.788;2023-02-15T10:27:45;21.00;54.90
11426;DHT22;5769;47.998;7.788;2023-02-15T10:30:15;21.10;54.30
11426;DHT22;5769;47.998;7.788;2023-02-15T10:32:52;21.30;53.90
11426;DHT22;5769;47.998;7.788;2023-02-15T10:35:24;21.30;53.70
11426;DHT22;5769;47.998;7.788;2023-02-15T10:38:17;21.40;53.90
11426;DHT22;5769;47.998;7.788;2023-02-15T10:40:51;21.40;53.80
11426;DHT22;5769;47.998;7.788;2023-02-15T10:43:36;21.50;53.70
11426;DHT22;5769;47.998;7.788;2023-02-15T10:46:20;21.70;53.60
11426;DHT22;5769;47.998;7.788;2023-02-15T10:49:09;21.90;53.20
11426;DHT22;5769;47.998;7.788;2023-02-15T10:51:45;22.20;52.70
11426;DHT22;5769;47.998;7.788;2023-02-15T10:54:24;22.20;52.50
11426;DHT22;5769;47.998;7.788;2023-02-15T10:57:02;22.20;52.70
11426;DHT22;5769;47.998;7.788;2023-02-15T10:59:43;22.10;52.80
11426;DHT22;5769;47.998;7.788;2023-02-15T11:02:22;22.00;53.20
11426;DHT22;5769;47.998;7.788;2023-02-15T11:04:57;21.90;53.50
11426;DHT22;5769;47.998;7.788;2023-02-15T11:07:32;21.90;53.70
11426;DHT22;5769;47.998;7.788;2023-02-15T11:10:11;22.00;53.70
11426;DHT22;5769;47.998;7.788;2023-02-15T11:12:41;22.10;53.50
11426;DHT22;5769;47.998;7.788;2023-02-15T11:15:17;22.30;53.00
11426;DHT22;5769;47.998;7.788;2023-02-15T11:17:54;22.30;53.00
11426;DHT22;5769;47.998;7.788;2023-02-15T11:20:27;22.40;52.90
11426;DHT22;5769;47.998;7.788;2023-02-15T11:22:59;22.50;52.90
11426;DHT22;5769;47.998;7.788;2023-02-15T11:25:31;22.40;53.20
11426;DHT22;5769;47.998;7.788;2023-02-15T11:28:10;22.20;53.30
11426;DHT22;5769;47.998;7.788;2023-02-15T11:30:43;22.20;53.50
11426;DHT22;5769;47.998;7.788;2023-02-15T11:33:18;22.20;53.70
11426;DHT22;5769;47.998;7.788;2023-02-15T11:35:53;22.30;53.50
11426;DHT22;5769;47.998;7.788;2023-02-15T11:38:28;22.40;53.30
11426;DHT22;5769;47.998;7.788;2023-02-15T11:41:11;22.60;53.00
11426;DHT22;5769;47.998;7.788;2023-02-15T11:43:44;22.60;53.00
11426;DHT22;5769;47.998;7.788;2023-02-15T11:46:15;22.60;53.10
11426;DHT22;5769;47.998;7.788;2023-02-15T11:48:48;22.60;53.20
11426;DHT22;5769;47.998;7.788;2023-02-15T11:51:18;22.50;53.40
11426;DHT22;5769;47.998;7.788;2023-02-15T11:53:46;22.40;53.70
11426;DHT22;5769;47.998;7.788;2023-02-15T11:56:21;22.40;53.70
11426;DHT22;5769;47.998;7.788;2023-02-15T11:58:55;22.50;53.70
11426;DHT22;5769;47.998;7.788;2023-02-15T12:01:31;22.50;53.60
11426;DHT22;5769;47.998;7.788;2023-02-15T12:04:08;22.60;53.40
11426;DHT22;5769;47.998;7.788;2023-02-15T12:06:46;22.70;53.20
11426;DHT22;5769;47.998;7.788;2023-02-15T12:09:24;22.70;53.10
11426;DHT22;5769;47.998;7.788;2023-02-15T12:11:54;22.70;53.10
11426;DHT22;5769;47.998;7.788;2023-02-15T12:14:49;22.70;53.10
11426;DHT22;5769;47.998;7.788;2023-02-15T12:17:21;22.60;53.30
11426;DHT22;5769;47.998;7.788;2023-02-15T12:19:48;22.50;53.60
11426;DHT22;5769;47.998;7.788;2023-02-15T12:22:21;22.30;53.60
11426;DHT22;5769;47.998;7.788;2023-02-15T12:24:51;22.10;52.30
11426;DHT22;5769;47.998;7.788;2023-02-15T12:27:21;21.90;52.20
11426;DHT22;5769;47.998;7.788;2023-02-15T12:29:56;21.80;52.20
11426;DHT22;5769;47.998;7.788;2023-02-15T12:32:26;21.70;52.30
11426;DHT22;5769;47.998;7.788;2023-02-15T12:35:02;21.70;52.50
11426;DHT22;5769;47.998;7.788;2023-02-15T12:37:36;21.60;52.30
11426;DHT22;5769;47.998;7.788;2023-02-15T12:40:19;21.60;52.40
11426;DHT22;5769;47.998;7.788;2023-02-15T12:42:46;21.50;52.50
11426;DHT22;5769;47.998;7.788;2023-02-15T12:45:24;21.50;52.60
11426;DHT22;5769;47.998;7.788;2023-02-15T12:48:13;21.40;52.60
11426;DHT22;5769;47.998;7.788;2023-02-15T12:50:44;21.40;52.70
11426;DHT22;5769;47.998;7.788;2023-02-15T12:53:16;21.40;52.80
11426;DHT22;5769;47.998;7.788;2023-02-15T12:55:53;21.40;52.80
11426;DHT22;5769;47.998;7.788;2023-02-15T12:58:32;21.30;52.90
11426;DHT22;5769;47.998;7.788;2023-02-15T13:01:11;21.30;52.90
11426;DHT22;5769;47.998;7.788;2023-02-15T13:03:57;21.30;53.00
11426;DHT22;5769;47.998;7.788;2023-02-15T13:06:25;21.30;52.90
11426;DHT22;5769;47.998;7.788;2023-02-15T13:08:54;21.30;53.00
11426;DHT22;5769;47.998;7.788;2023-02-15T13:11:26;21.30;53.10
11426;DHT22;5769;47.998;7.788;2023-02-15T13:13:55;21.20;53.10
11426;DHT22;5769;47.998;7.788;2023-02-15T13:16:30;21.20;53.10
11426;DHT22;5769;47.998;7.788;2023-02-15T13:19:03;21.20;53.20
11426;DHT22;5769;47.998;7.788;2023-02-15T13:21:34;21.20;53.30
11426;DHT22;5769;47.998;7.788;2023-02-15T13:24:15;21.20;53.30
11426;DHT22;5769;47.998;7.788;2023-02-15T13:26:45;21.10;53.20
11426;DHT22;5769;47.998;7.788;2023-02-15T13:29:18;21.10;53.40
11426;DHT22;5769;47.998;7.788;2023-02-15T13:31:49;21.10;53.30
11426;DHT22;5769;47.998;7.788;2023-02-15T13:34:20;21.10;53.40
11426;DHT22;5769;47.998;7.788;2023-02-15T13:36:53;21.10;53.50
11426;DHT22;5769;47.998;7.788;2023-02-15T13:39:26;21.00;53.50
11426;DHT22;5769;47.998;7.788;2023-02-15T13:42:00;21.00;53.50
11426;DHT22;5769;47.998;7.788;2023-02-15T13:44:50;21.10;53.70
11426;DHT22;5769;47.998;7.788;2023-02-15T13:47:26;21.00;53.70
11426;DHT22;5769;47.998;7.788;2023-02-15T13:50:07;21.00;53.70
11426;DHT22;5769;47.998;7.788;2023-02-15T13:52:42;21.00;53.60
11426;DHT22;5769;47.998;7.788;2023-02-15T13:55:25;21.00;53.70
11426;DHT22;5769;47.998;7.788;2023-02-15T13:58:15;21.00;53.70
11426;DHT22;5769;47.998;7.788;2023-02-15T14:00:48;21.00;53.70
11426;DHT22;5769;47.998;7.788;2023-02-15T14:03:46;21.00;53.70
11426;DHT22;5769;47.998;7.788;2023-02-15T14:06:35;21.00;53.80
11426;DHT22;5769;47.998;7.788;2023-02-15T14:09:15;21.00;53.90
11426;DHT22;5769;47.998;7.788;2023-02-15T14:11:50;21.00;53.90
11426;DHT22;5769;47.998;7.788;2023-02-15T14:14:36;21.00;53.80
11426;DHT22;5769;47.998;7.788;2023-02-15T14:17:12;20.90;53.90
11426;DHT22;5769;47.998;7.788;2023-02-15T14:19:45;21.00;53.90
11426;DHT22;5769;47.998;7.788;2023-02-15T14:22:20;20.90;53.90
11426;DHT22;5769;47.998;7.788;2023-02-15T14:24:59;20.90;54.00
11426;DHT22;5769;47.998;7.788;2023-02-15T14:27:41;20.90;54.00
11426;DHT22;5769;47.998;7.788;2023-02-15T14:30:17;20.90;54.10
11426;DHT22;5769;47.998;7.788;2023-02-15T14:32:48;20.90;54.10
11426;DHT22;5769;47.998;7.788;2023-02-15T14:35:19;20.90;54.00
11426;DHT22;5769;47.998;7.788;2023-02-15T14:37:50;20.90;53.90
11426;DHT22;5769;47.998;7.788;2023-02-15T14:40:29;20.90;54.00
11426;DHT22;5769;47.998;7.788;2023-02-15T14:43:22;20.90;53.90
11426;DHT22;5769;47.998;7.788;2023-02-15T14:45:54;20.90;53.90
11426;DHT22;5769;47.998;7.788;2023-02-15T14:48:25;20.90;53.90
11426;DHT22;5769;47.998;7.788;2023-02-15T14:50:54;20.90;53.90
11426;DHT22;5769;47.998;7.788;2023-02-15T14:53:37;20.90;54.00
11426;DHT22;5769;47.998;7.788;2023-02-15T14:59:12;20.90;54.00
11426;DHT22;5769;47.998;7.788;2023-02-15T15:01:40;20.90;54.00
11426;DHT22;5769;47.998;7.788;2023-02-15T15:04:09;20.90;54.00
11426;DHT22;5769;47.998;7.788;2023-02-15T15:06:42;20.80;54.00
11426;DHT22;5769;47.998;7.788;2023-02-15T15:09:21;20.90;54.00
11426;DHT22;5769;47.998;7.788;2023-02-15T15:11:54;20.90;53.80
11426;DHT22;5769;47.998;7.788;2023-02-15T15:14:42;21.00;53.50
11426;DHT22;5769;47.998;7.788;2023-02-15T15:17:13;21.20;53.20
11426;DHT22;5769;47.998;7.788;2023-02-15T15:20:03;21.30;53.10
11426;DHT22;5769;47.998;7.788;2023-02-15T15:22:40;21.40;53.20
11426;DHT22;5769;47.998;7.788;2023-02-15T15:25:12;21.30;53.40
11426;DHT22;5769;47.998;7.788;2023-02-15T15:28:00;21.30;53.60
11426;DHT22;5769;47.998;7.788;2023-02-15T15:30:51;21.30;53.60
11426;DHT22;5769;47.998;7.788;2023-02-15T15:42:49;21.30;53.80
11426;DHT22;5769;47.998;7.788;2023-02-15T15:45:45;21.30;54.00
11426;DHT22;5769;47.998;7.788;2023-02-15T15:48:30;21.30;54.20
11426;DHT22;5769;47.998;7.788;2023-02-15T15:50:59;21.20;54.30
11426;DHT22;5769;47.998;7.788;2023-02-15T15:53:44;21.20;54.40
11426;DHT22;5769;47.998;7.788;2023-02-15T15:56:20;21.20;54.40
11426;DHT22;5769;47.998;7.788;2023-02-15T15:59:02;21.10;54.50
11426;DHT22;5769;47.998;7.788;2023-02-15T16:01:37;21.10;54.60
11426;DHT22;5769;47.998;7.788;2023-02-15T16:04:14;21.10;54.70
11426;DHT22;5769;47.998;7.788;2023-02-15T16:06:49;21.10;54.70
11426;DHT22;5769;47.998;7.788;2023-02-15T16:09:19;21.10;54.70
11426;DHT22;5769;47.998;7.788;2023-02-15T16:11:53;21.10;54.80
11426;DHT22;5769;47.998;7.788;2023-02-15T16:14:30;21.00;54.90
11426;DHT22;5769;47.998;7.788;2023-02-15T16:16:59;21.10;55.00
11426;DHT22;5769;47.998;7.788;2023-02-15T16:19:33;21.10;55.00
11426;DHT22;5769;47.998;7.788;2023-02-15T16:22:10;21.00;55.00
11426;DHT22;5769;47.998;7.788;2023-02-15T16:27:38;21.00;55.20
11426;DHT22;5769;47.998;7.788;2023-02-15T16:30:25;21.00;55.20
11426;DHT22;5769;47.998;7.788;2023-02-15T16:33:11;21.00;55.30